Terminal Aerodrome Forecast
Issued by NWS

Home | Current Version | Previous Version | Text Only | Print | Product List | Glossary On
Versions: 1 2 3 4 5 6 7 8 9 10 11 12 13 14 15
000
FTUS41 KAKQ 250500
TAFPHF
TAF
KPHF 250520Z 2506/2606 02003KT 3SM BR FEW003
      TEMPO 2506/2509 1SM BR FEW002
     FM251200 VRB06KT P6SM SKC
     FM252300 24006KT P6SM SCT080=

USA.gov is the U.S. government's official web portal to all federal, state and local government web resources and services.